Time;durP1;ratioP1;P1;durP2;ratioP2;P2;SDS_P1;SDS_P2;PMS_P1;PMS_P2;Temp;Humidity;BMP_temperature;BMP_pressure;BME280_temperature;BME280_humidity;BME280_pressure;Samples;Min_cycle;Max_cycle;Signal;HPM_P1;HPM_P2
2024/04/11 00:00:50;;;;;;;10.48;1.90;;;;;;;13.25;72.42;102702.03;5348512;26;20328;-60
2024/04/11 00:03:17;;;;;;;9.63;2.53;;;;;;;13.36;73.01;102694.59;5351119;26;20771;-60
2024/04/11 00:05:42;;;;;;;11.75;2.20;;;;;;;13.27;73.38;102688.56;5330886;26;20638;-57
2024/04/11 00:08:07;;;;;;;8.35;1.88;;;;;;;13.19;73.22;102665.38;5348739;26;20281;-59
2024/04/11 00:10:33;;;;;;;8.27;1.95;;;;;;;13.27;74.04;102696.63;5349796;26;20387;-58
2024/04/11 00:12:58;;;;;;;9.23;2.03;;;;;;;13.32;74.78;102697.38;5345065;26;20283;-59
2024/04/11 00:15:24;;;;;;;12.57;2.85;;;;;;;13.38;75.33;102691.88;5349898;26;20289;-59
2024/04/11 00:17:49;;;;;;;12.68;3.05;;;;;;;13.30;76.50;102693.84;5350801;26;20284;-59
2024/04/11 00:20:14;;;;;;;7.03;2.03;;;;;;;13.32;77.07;102690.22;5349773;26;20743;-59
2024/04/11 00:22:40;;;;;;;10.10;1.95;;;;;;;13.23;77.36;102703.00;5351010;26;20251;-59
2024/04/11 00:25:05;;;;;;;4.90;2.45;;;;;;;13.23;78.28;102684.16;5350600;26;20236;-57
2024/04/11 00:27:31;;;;;;;15.00;3.03;;;;;;;13.12;78.62;102662.88;5347776;26;20255;-57
2024/04/11 00:29:56;;;;;;;9.60;2.08;;;;;;;13.19;79.39;102654.63;5332137;26;20289;-57
2024/04/11 00:32:23;;;;;;;11.05;2.65;;;;;;;13.30;79.12;102667.81;5349371;26;20244;-58
2024/04/11 00:34:48;;;;;;;9.90;2.10;;;;;;;13.07;80.55;102665.69;5350535;26;20602;-58
2024/04/11 00:37:15;;;;;;;8.85;2.25;;;;;;;13.11;80.57;102656.63;5351350;26;20251;-59
2024/04/11 00:39:41;;;;;;;13.15;2.85;;;;;;;13.10;81.52;102665.63;5351837;26;20286;-58
2024/04/11 00:42:07;;;;;;;13.95;2.20;;;;;;;13.08;82.19;102656.72;5352081;26;20239;-58
2024/04/11 00:44:33;;;;;;;10.52;2.40;;;;;;;13.11;82.42;102651.25;5342877;26;20240;-56
2024/04/11 00:46:58;;;;;;;10.57;2.88;;;;;;;13.13;82.94;102673.63;5345607;26;20297;-56
2024/04/11 00:49:24;;;;;;;11.45;2.75;;;;;;;12.93;83.89;102668.72;5351786;26;20236;-58
2024/04/11 00:51:50;;;;;;;11.23;2.60;;;;;;;12.84;85.08;102669.81;5350672;26;20247;-59
2024/04/11 00:54:17;;;;;;;11.13;2.58;;;;;;;12.88;84.66;102643.75;5350382;26;20307;-59
2024/04/11 00:56:44;;;;;;;11.48;3.10;;;;;;;12.97;84.78;102634.53;5351610;26;20239;-59
2024/04/11 00:59:10;;;;;;;7.80;2.00;;;;;;;12.99;85.21;102632.72;5334859;26;20344;-58
2024/04/11 01:01:36;;;;;;;12.57;2.75;;;;;;;12.92;86.47;102642.72;5351790;26;20231;-57
2024/04/11 01:04:03;;;;;;;14.85;3.15;;;;;;;12.81;87.70;102628.66;5350204;26;20810;-59
2024/04/11 01:09:33;;;;;;;10.00;2.83;;;;;;;12.79;88.81;102641.28;5348950;26;20344;-58
2024/04/11 01:11:59;;;;;;;11.27;2.95;;;;;;;12.75;89.79;102639.56;5347230;26;20306;-59
2024/04/11 01:14:24;;;;;;;13.02;3.05;;;;;;;12.88;88.76;102653.59;5350330;26;20238;-57
2024/04/11 01:16:50;;;;;;;10.05;2.50;;;;;;;12.93;89.32;102652.56;5350055;26;20231;-59
2024/04/11 01:19:16;;;;;;;10.75;2.80;;;;;;;12.82;90.39;102673.47;5348219;26;20290;-56
2024/04/11 01:21:41;;;;;;;13.20;4.10;;;;;;;12.88;90.62;102670.63;5314037;26;20240;-57
2024/04/11 01:24:07;;;;;;;7.95;3.45;;;;;;;12.87;91.67;102659.91;5335276;26;20238;-57
2024/04/11 01:26:35;;;;;;;11.98;3.42;;;;;;;12.79;93.47;102652.03;5348968;26;20250;-57
2024/04/11 01:29:01;;;;;;;13.15;2.65;;;;;;;12.80;93.98;102662.75;5347615;26;20239;-57
2024/04/11 01:31:28;;;;;;;18.13;4.20;;;;;;;12.72;95.25;102655.75;5319386;26;20564;-56
2024/04/11 01:33:54;;;;;;;12.10;2.95;;;;;;;12.75;96.09;102669.13;5315750;26;20228;-56
2024/04/11 01:36:20;;;;;;;10.57;3.70;;;;;;;12.84;95.63;102674.31;5325729;26;20336;-58
2024/04/11 01:38:45;;;;;;;12.20;3.17;;;;;;;12.91;95.17;102658.91;5330021;26;20741;-58
2024/04/11 01:41:11;;;;;;;15.68;4.05;;;;;;;12.66;98.13;102687.25;5348745;26;20243;-58
2024/04/11 01:43:36;;;;;;;9.90;3.17;;;;;;;12.67;98.60;102682.75;5348982;26;20348;-57
2024/04/11 01:46:02;;;;;;;15.57;4.25;;;;;;;12.64;99.45;102705.22;5347249;26;20282;-57
2024/04/11 01:48:28;;;;;;;16.80;4.25;;;;;;;12.64;100.00;102685.50;5351033;26;20333;-56
2024/04/11 01:50:53;;;;;;;12.18;4.38;;;;;;;12.70;100.00;102688.06;5330053;26;20765;-58
2024/04/11 01:53:19;;;;;;;19.35;4.30;;;;;;;12.59;100.00;102676.69;5351716;26;20246;-57
2024/04/11 01:55:44;;;;;;;14.88;4.55;;;;;;;12.61;100.00;102656.00;5349294;26;20277;-57
2024/04/11 01:58:12;;;;;;;16.17;4.80;;;;;;;12.45;100.00;102677.84;5350326;26;20344;-59
2024/04/11 02:00:38;;;;;;;20.25;4.35;;;;;;;12.50;100.00;102680.44;5349436;26;20244;-57
2024/04/11 02:03:04;;;;;;;13.68;4.15;;;;;;;12.44;100.00;102651.00;5351021;26;20625;-58
2024/04/11 02:05:34;;;;;;;10.40;4.47;;;;;;;12.45;100.00;102666.19;5351026;26;20238;-57
2024/04/11 02:08:03;;;;;;;20.17;4.70;;;;;;;12.55;100.00;102665.09;5350657;26;20243;-56
2024/04/11 02:10:29;;;;;;;11.90;4.68;;;;;;;12.51;100.00;102654.44;5350422;26;20755;-56
2024/04/11 02:12:56;;;;;;;17.65;4.82;;;;;;;12.34;100.00;102665.56;5351195;26;20255;-57
2024/04/11 02:15:23;;;;;;;10.68;4.53;;;;;;;12.35;100.00;102676.28;5350443;26;20273;-56
2024/04/11 02:17:49;;;;;;;17.63;5.00;;;;;;;12.41;100.00;102675.25;5349658;26;20285;-57
2024/04/11 02:20:16;;;;;;;15.15;5.93;;;;;;;12.33;100.00;102675.44;5351690;26;20359;-57
2024/04/11 02:22:42;;;;;;;10.43;4.57;;;;;;;12.27;100.00;102692.56;5352418;26;20239;-58
2024/04/11 02:25:07;;;;;;;17.15;5.28;;;;;;;12.13;100.00;102679.41;5352229;26;20285;-57
2024/04/11 02:27:34;;;;;;;18.80;5.35;;;;;;;12.32;100.00;102695.16;5351661;26;20239;-58
2024/04/11 02:29:59;;;;;;;13.77;5.50;;;;;;;12.22;100.00;102697.16;5350284;26;20235;-58
2024/04/11 02:32:27;;;;;;;14.15;5.22;;;;;;;12.16;100.00;102696.38;5350703;26;20330;-57
2024/04/11 02:34:52;;;;;;;15.30;4.70;;;;;;;12.28;100.00;102690.75;5350290;26;20250;-58
2024/04/11 02:37:18;;;;;;;18.67;5.53;;;;;;;12.09;100.00;102676.81;5349076;26;20281;-58
2024/04/11 02:39:44;;;;;;;17.60;4.95;;;;;;;12.17;100.00;102692.78;5352047;26;20342;-57
2024/04/11 02:42:09;;;;;;;22.65;6.25;;;;;;;12.20;100.00;102668.53;5352205;26;20242;-57
2024/04/11 02:44:35;;;;;;;14.70;4.85;;;;;;;12.21;100.00;102671.19;5352174;26;20281;-57
2024/04/11 02:47:01;;;;;;;16.38;5.13;;;;;;;12.06;100.00;102664.31;5352056;26;20402;-58
2024/04/11 02:49:27;;;;;;;17.33;5.40;;;;;;;12.05;100.00;102672.41;5340851;26;20232;-58
2024/04/11 02:51:53;;;;;;;15.35;5.88;;;;;;;11.92;100.00;102658.31;5341546;26;20289;-58
2024/04/11 02:54:19;;;;;;;34.20;8.32;;;;;;;11.72;100.00;102664.94;5350994;26;20279;-58
2024/04/11 02:56:45;;;;;;;20.95;6.43;;;;;;;11.78;100.00;102647.81;5351097;26;20764;-58
2024/04/11 02:59:11;;;;;;;17.33;6.43;;;;;;;11.99;100.00;102654.63;5351814;26;20281;-58
2024/04/11 03:01:39;;;;;;;19.15;5.95;;;;;;;11.89;100.00;102651.19;5350525;26;20235;-59
2024/04/11 03:04:05;;;;;;;24.35;6.80;;;;;;;11.85;100.00;102651.28;5379267;26;20688;-58
2024/04/11 03:06:33;;;;;;;19.65;7.55;;;;;;;11.73;100.00;102657.75;5351251;26;20250;-60
2024/04/11 03:09:00;;;;;;;16.65;6.43;;;;;;;11.77;100.00;102644.22;5351844;26;20255;-58
2024/04/11 03:11:26;;;;;;;17.10;6.68;;;;;;;11.69;100.00;102615.78;5351364;26;20404;-58
2024/04/11 03:13:58;;;;;;;17.40;8.48;;;;;;;11.95;100.00;102653.78;5352703;26;20750;-58
2024/04/11 03:16:24;;;;;;;23.23;8.23;;;;;;;11.86;100.00;102642.31;5351615;26;20307;-57
2024/04/11 03:18:51;;;;;;;22.92;6.45;;;;;;;11.80;100.00;102637.94;5350540;26;20243;-57
2024/04/11 03:21:17;;;;;;;25.10;9.40;;;;;;;11.85;100.00;102646.81;5352025;26;20306;-58
2024/04/11 03:23:42;;;;;;;18.85;7.63;;;;;;;11.72;100.00;102621.97;5345359;26;20290;-60
2024/04/11 03:26:07;;;;;;;16.75;6.88;;;;;;;11.76;100.00;102626.38;5342704;26;20281;-59
2024/04/11 03:28:33;;;;;;;20.25;7.95;;;;;;;11.77;100.00;102627.25;5351946;26;20255;-59
2024/04/11 03:31:08;;;;;;;24.80;7.60;;;;;;;11.83;100.00;102624.44;5327957;26;20240;-57
2024/04/11 03:33:36;;;;;;;18.80;6.78;;;;;;;11.96;100.00;102633.19;5351881;26;20292;-59
2024/04/11 03:36:05;;;;;;;17.70;7.10;;;;;;;11.87;100.00;102633.34;5349907;26;20246;-59
2024/04/11 03:38:31;;;;;;;15.10;7.50;;;;;;;11.83;100.00;102634.31;5351684;26;20247;-59
2024/04/11 03:41:07;;;;;;;19.98;8.52;;;;;;;11.81;100.00;102641.50;5320822;26;20243;-58
2024/04/11 03:43:37;;;;;;;23.38;9.43;;;;;;;11.79;100.00;102633.47;5351965;26;20239;-59
2024/04/11 03:46:11;;;;;;;15.73;7.68;;;;;;;11.69;100.00;102639.94;5342012;26;20734;-59
2024/04/11 03:48:38;;;;;;;25.77;9.57;;;;;;;11.72;100.00;102651.50;5339733;26;20765;-59
2024/04/11 03:51:08;;;;;;;18.48;8.85;;;;;;;11.81;100.00;102645.09;5329330;26;20283;-58
2024/04/11 03:53:33;;;;;;;19.77;8.13;;;;;;;11.80;100.00;102669.28;5354031;26;20298;-59
2024/04/11 03:55:58;;;;;;;19.70;8.68;;;;;;;11.86;100.00;102666.47;5357300;26;20239;-58
2024/04/11 03:58:25;;;;;;;19.92;7.38;;;;;;;11.92;100.00;102671.72;5353613;26;20239;-58
2024/04/11 04:00:50;;;;;;;23.63;9.07;;;;;;;11.85;100.00;102676.34;5331414;26;20344;-58
2024/04/11 04:03:16;;;;;;;19.50;7.43;;;;;;;11.93;100.00;102665.50;5351063;26;20259;-57
2024/04/11 04:05:42;;;;;;;23.00;7.85;;;;;;;11.88;100.00;102678.06;5351673;26;20234;-59
2024/04/11 04:08:08;;;;;;;19.23;8.77;;;;;;;11.77;100.00;102689.00;5351392;26;20321;-59
2024/04/11 04:10:34;;;;;;;16.50;8.43;;;;;;;11.86;100.00;102694.22;5352309;26;20239;-59
2024/04/11 04:12:59;;;;;;;20.75;8.30;;;;;;;11.89;100.00;102687.91;5352126;26;20625;-59
2024/04/11 04:15:25;;;;;;;21.58;8.80;;;;;;;11.86;100.00;102706.75;5351687;26;20235;-58
2024/04/11 04:17:53;;;;;;;21.45;8.68;;;;;;;11.84;100.00;102679.03;5353518;26;20243;-60
2024/04/11 04:20:19;;;;;;;16.27;10.27;;;;;;;11.86;100.00;102696.00;5353777;26;20405;-57
2024/04/11 04:22:45;;;;;;;20.88;9.18;;;;;;;11.91;100.00;102708.44;5354509;26;20239;-58
2024/04/11 04:25:11;;;;;;;21.20;11.15;;;;;;;11.87;100.00;102704.03;5350546;26;20652;-59
2024/04/11 04:27:37;;;;;;;19.33;9.65;;;;;;;11.95;100.00;102707.50;5350442;26;20282;-59
2024/04/11 04:30:09;;;;;;;17.95;9.43;;;;;;;11.91;100.00;102719.19;5343234;26;20585;-59
2024/04/11 04:32:38;;;;;;;17.88;8.52;;;;;;;11.92;100.00;102720.97;5339474;26;20247;-59
2024/04/11 04:35:09;;;;;;;22.58;9.20;;;;;;;11.93;100.00;102713.84;5349203;26;20239;-59
2024/04/11 04:37:39;;;;;;;20.20;10.02;;;;;;;11.89;100.00;102718.31;5350183;26;20249;-59
2024/04/11 04:40:06;;;;;;;18.23;8.75;;;;;;;11.94;100.00;102726.31;5349882;26;20278;-58
2024/04/11 04:42:31;;;;;;;24.65;10.30;;;;;;;11.81;100.00;102716.69;5327076;26;20243;-59
2024/04/11 04:44:57;;;;;;;18.40;9.63;;;;;;;12.00;100.00;102719.97;5349114;26;20340;-59
2024/04/11 04:47:28;;;;;;;18.00;9.63;;;;;;;11.92;100.00;102704.88;5346503;26;20231;-58
2024/04/11 04:49:55;;;;;;;18.58;8.93;;;;;;;11.85;100.00;102727.38;5349036;26;20291;-59
2024/04/11 04:52:24;;;;;;;16.23;8.65;;;;;;;11.82;100.00;102718.47;5349837;26;20281;-59
2024/04/11 04:54:53;;;;;;;20.17;8.77;;;;;;;11.74;100.00;102734.72;5352550;26;20322;-59
2024/04/11 04:57:19;;;;;;;20.45;8.80;;;;;;;11.83;100.00;102728.28;5351378;26;20239;-59
2024/04/11 04:59:45;;;;;;;22.70;9.88;;;;;;;12.01;100.00;102736.03;5349635;26;20281;-58
2024/04/11 05:02:10;;;;;;;17.65;9.82;;;;;;;11.90;100.00;102741.59;5346951;26;20674;-59
2024/04/11 05:04:37;;;;;;;19.63;10.18;;;;;;;11.90;100.00;102741.59;5334503;26;20247;-59
2024/04/11 05:07:08;;;;;;;21.35;10.07;;;;;;;11.76;100.00;102720.34;5354286;26;20239;-58
2024/04/11 05:09:37;;;;;;;19.77;10.68;;;;;;;11.72;100.00;102724.00;5349717;26;20240;-60
2024/04/11 05:12:05;;;;;;;19.30;10.05;;;;;;;11.72;100.00;102748.16;5350923;26;20332;-59
2024/04/11 05:14:45;;;;;;;23.77;10.85;;;;;;;11.86;100.00;102739.84;5351563;26;20251;-60
2024/04/11 05:17:11;;;;;;;17.33;10.75;;;;;;;11.74;100.00;102737.38;5330044;26;20234;-59
2024/04/11 05:19:36;;;;;;;16.13;10.35;;;;;;;11.77;100.00;102748.94;5351696;26;20235;-59
2024/04/11 05:22:04;;;;;;;24.00;11.85;;;;;;;11.85;100.00;102750.63;5352865;26;20255;-59
2024/04/11 05:24:30;;;;;;;23.80;12.07;;;;;;;11.80;100.00;102747.16;5329520;26;20244;-58
2024/04/11 05:26:55;;;;;;;18.67;9.73;;;;;;;11.70;100.00;102758.03;5351174;26;20289;-58
2024/04/11 05:29:21;;;;;;;19.58;10.20;;;;;;;11.69;100.00;102740.16;5379453;26;20239;-60
2024/04/11 05:31:46;;;;;;;19.38;11.23;;;;;;;11.67;100.00;102741.09;5351583;26;20231;-59
2024/04/11 05:34:16;;;;;;;19.23;10.10;;;;;;;11.71;100.00;102743.69;5351197;26;20251;-60
2024/04/11 05:36:43;;;;;;;21.85;11.00;;;;;;;11.76;100.00;102766.00;5350988;26;20757;-59
2024/04/11 05:39:09;;;;;;;23.88;11.40;;;;;;;11.87;100.00;102759.56;5352881;26;20247;-59
2024/04/11 05:41:35;;;;;;;20.88;10.90;;;;;;;11.87;100.00;102749.69;5352298;26;20243;-59
2024/04/11 05:44:01;;;;;;;24.35;11.70;;;;;;;11.86;100.00;102757.78;5352665;26;20326;-58
2024/04/11 05:46:27;;;;;;;20.33;11.57;;;;;;;11.76;100.00;102774.06;5352135;26;20247;-58
2024/04/11 05:48:53;;;;;;;28.65;14.25;;;;;;;11.86;100.00;102776.56;5352242;26;20235;-59
2024/04/11 05:51:20;;;;;;;27.02;13.27;;;;;;;11.91;100.00;102769.31;5350903;26;20613;-58
2024/04/11 05:53:46;;;;;;;30.17;13.50;;;;;;;11.78;100.00;102782.94;5328978;26;20276;-57
2024/04/11 05:56:12;;;;;;;22.77;12.65;;;;;;;11.92;100.00;102763.03;5352095;26;20281;-58
2024/04/11 05:58:38;;;;;;;29.08;13.88;;;;;;;11.88;100.00;102759.53;5353023;26;20281;-56
2024/04/11 06:01:09;;;;;;;28.38;12.95;;;;;;;11.88;100.00;102751.47;5352583;26;20698;-59
2024/04/11 06:03:40;;;;;;;25.08;14.10;;;;;;;11.81;100.00;102746.22;5345941;26;20248;-57
2024/04/11 06:06:13;;;;;;;41.85;14.93;;;;;;;11.74;100.00;102783.03;5334404;26;20666;-60
2024/04/11 06:08:42;;;;;;;28.20;15.55;;;;;;;12.00;100.00;102777.25;5350069;26;20239;-59
2024/04/11 06:11:07;;;;;;;31.42;15.00;;;;;;;12.07;100.00;102791.47;5378963;26;20265;-58
2024/04/11 06:13:33;;;;;;;32.03;14.35;;;;;;;11.88;100.00;102801.59;5350985;26;20227;-59
2024/04/11 06:16:00;;;;;;;36.58;15.15;;;;;;;11.85;100.00;102801.66;5333186;26;20232;-58
2024/04/11 06:18:28;;;;;;;32.47;14.75;;;;;;;11.87;100.00;102815.97;5347360;26;20302;-58
2024/04/11 06:20:55;;;;;;;32.58;15.30;;;;;;;11.94;100.00;102809.59;5351845;26;20243;-58
2024/04/11 06:23:21;;;;;;;41.03;17.10;;;;;;;11.95;100.00;102816.75;5351643;26;20247;-60
2024/04/11 06:25:47;;;;;;;34.38;16.45;;;;;;;11.87;100.00;102802.53;5351367;26;20247;-59
2024/04/11 06:28:15;;;;;;;35.30;16.55;;;;;;;11.93;100.00;102814.06;5352566;26;20235;-57
2024/04/11 06:30:41;;;;;;;42.00;16.55;;;;;;;12.11;100.00;102796.75;5353029;26;20674;-58
2024/04/11 06:33:11;;;;;;;38.47;16.75;;;;;;;12.20;100.00;102802.88;5352417;26;20234;-59
2024/04/11 06:35:36;;;;;;;36.83;16.00;;;;;;;12.04;100.00;102796.91;5351874;26;20243;-60
2024/04/11 06:38:07;;;;;;;33.47;16.33;;;;;;;12.02;100.00;102806.75;5352207;26;20747;-59
2024/04/11 06:40:32;;;;;;;38.00;16.55;;;;;;;12.12;100.00;102805.69;5351885;26;20335;-60
2024/04/11 06:42:59;;;;;;;29.50;15.77;;;;;;;12.17;100.00;102817.22;5348300;26;20239;-58
2024/04/11 06:45:25;;;;;;;35.60;17.80;;;;;;;12.03;100.00;102790.63;5350920;26;20239;-58
2024/04/11 06:47:52;;;;;;;42.92;17.25;;;;;;;12.24;100.00;102828.78;5349362;26;20235;-59
2024/04/11 06:50:19;;;;;;;31.52;16.63;;;;;;;12.24;100.00;102813.53;5349116;26;20239;-59
2024/04/11 06:52:45;;;;;;;38.70;16.67;;;;;;;12.09;100.00;102820.06;5349190;26;20231;-60
2024/04/11 06:55:14;;;;;;;34.03;15.30;;;;;;;11.93;100.00;102810.50;5350283;26;20333;-57
2024/04/11 06:57:46;;;;;;;39.63;17.92;;;;;;;11.93;100.00;102827.50;5350570;26;20286;-59
2024/04/11 07:00:21;;;;;;;42.80;18.30;;;;;;;12.03;100.00;102825.53;5350590;26;20354;-58
2024/04/11 07:02:50;;;;;;;41.78;16.23;;;;;;;12.07;100.00;102840.69;5351038;26;20277;-57
2024/04/11 07:05:16;;;;;;;41.72;18.90;;;;;;;12.15;100.00;102837.00;5350343;26;20247;-60
2024/04/11 07:07:45;;;;;;;45.20;17.67;;;;;;;12.07;100.00;102843.38;5352606;26;20377;-57
2024/04/11 07:10:15;;;;;;;30.48;16.30;;;;;;;12.08;100.00;102847.84;5347555;26;20236;-57
2024/04/11 07:12:42;;;;;;;30.48;16.55;;;;;;;12.24;100.00;102861.91;5338432;26;20282;-59
2024/04/11 07:15:10;;;;;;;36.92;17.02;;;;;;;12.15;100.00;102863.88;5355594;26;20758;-60
2024/04/11 07:17:41;;;;;;;34.40;14.52;;;;;;;12.16;100.00;102863.84;5355892;26;20235;-60
2024/04/11 07:20:09;;;;;;;33.33;15.38;;;;;;;12.28;100.00;102876.16;5333065;26;20440;-59
2024/04/11 07:22:44;;;;;;;34.40;15.20;;;;;;;12.18;100.00;102866.50;5335580;26;20286;-58
2024/04/11 07:25:10;;;;;;;33.00;15.18;;;;;;;12.12;100.00;102878.22;5355525;26;20630;-59
2024/04/11 07:27:35;;;;;;;38.80;15.70;;;;;;;12.17;100.00;102886.22;5356576;26;20777;-61
2024/04/11 07:30:01;;;;;;;34.47;14.93;;;;;;;12.30;100.00;102875.22;5355738;26;20235;-59
2024/04/11 07:32:30;;;;;;;31.58;13.55;;;;;;;12.44;100.00;102887.53;5356345;26;20337;-59
2024/04/11 07:34:55;;;;;;;36.20;14.43;;;;;;;12.41;100.00;102887.59;5354951;26;20239;-59
2024/04/11 07:37:25;;;;;;;30.80;12.93;;;;;;;12.36;100.00;102894.84;5349980;26;20248;-59
2024/04/11 07:39:53;;;;;;;31.13;13.23;;;;;;;12.20;100.00;102891.53;5353720;26;20698;-58
2024/04/11 07:42:18;;;;;;;36.08;13.07;;;;;;;12.40;100.00;102893.88;5330437;26;20251;-60
2024/04/11 07:44:47;;;;;;;26.55;13.38;;;;;;;12.37;100.00;102889.44;5320437;26;20828;-57
2024/04/11 07:47:13;;;;;;;25.10;11.73;;;;;;;12.41;100.00;102883.09;5346093;26;20290;-60
2024/04/11 07:49:40;;;;;;;24.25;11.45;;;;;;;12.29;100.00;102880.63;5353248;26;20236;-60
2024/04/11 07:52:07;;;;;;;30.05;11.93;;;;;;;12.12;100.00;102879.09;5352703;26;20242;-58
2024/04/11 07:54:33;;;;;;;24.75;11.18;;;;;;;12.27;100.00;102893.22;5354333;26;20757;-59
2024/04/11 07:56:58;;;;;;;22.20;11.82;;;;;;;12.36;100.00;102900.22;5351041;26;20323;-58
2024/04/11 07:59:23;;;;;;;28.55;11.50;;;;;;;12.19;100.00;102900.50;5352267;26;20243;-58
2024/04/11 08:01:49;;;;;;;36.10;11.55;;;;;;;12.38;100.00;102915.41;5355261;26;20235;-58
2024/04/11 08:04:14;;;;;;;18.80;9.95;;;;;;;12.41;100.00;102909.09;5347588;26;20780;-58
2024/04/11 08:06:39;;;;;;;31.83;11.75;;;;;;;12.26;100.00;102907.56;5350783;26;20329;-58
2024/04/11 08:09:08;;;;;;;22.58;8.93;;;;;;;12.42;100.00;102910.84;5343667;26;20282;-58
2024/04/11 08:11:34;;;;;;;24.15;8.13;;;;;;;12.31;100.00;102911.03;5344023;26;20301;-58
2024/04/11 08:14:03;;;;;;;22.58;9.60;;;;;;;12.39;100.00;102898.38;5352334;26;20235;-57
2024/04/11 08:16:29;;;;;;;17.50;8.57;;;;;;;12.51;100.00;102905.34;5330406;26;20235;-58
2024/04/11 08:18:54;;;;;;;27.42;9.70;;;;;;;12.52;100.00;102901.72;5353273;26;20274;-58
2024/04/11 08:21:20;;;;;;;26.60;9.43;;;;;;;12.49;100.00;102908.03;5355024;26;20247;-58
2024/04/11 08:23:46;;;;;;;21.33;8.43;;;;;;;12.44;100.00;102907.22;5348150;26;20280;-58
2024/04/11 08:26:12;;;;;;;21.75;8.73;;;;;;;12.53;100.00;102916.06;5352068;26;20243;-59
2024/04/11 08:28:39;;;;;;;24.02;8.80;;;;;;;12.53;100.00;102922.31;5332066;26;20240;-59
2024/04/11 08:31:08;;;;;;;22.17;8.15;;;;;;;12.55;100.00;102927.66;5349085;26;20226;-60
2024/04/11 08:33:36;;;;;;;30.50;7.88;;;;;;;12.54;100.00;102940.25;5351574;26;20277;-60
2024/04/11 08:36:03;;;;;;;26.80;8.93;;;;;;;12.62;100.00;102946.34;5351192;26;20247;-59
2024/04/11 08:38:33;;;;;;;24.13;8.35;;;;;;;12.65;100.00;102937.34;5354636;26;20247;-59
2024/04/11 08:41:00;;;;;;;21.65;8.15;;;;;;;12.68;100.00;102937.31;5347965;26;20232;-59
2024/04/11 08:43:27;;;;;;;27.75;8.18;;;;;;;12.74;100.00;102941.66;5341184;26;20240;-59
2024/04/11 08:45:53;;;;;;;28.95;8.05;;;;;;;12.64;100.00;102930.19;5335276;26;20288;-59
2024/04/11 08:48:19;;;;;;;25.58;9.43;;;;;;;12.58;100.00;102947.31;5355602;26;20255;-59
2024/04/11 08:50:44;;;;;;;28.95;6.72;;;;;;;12.73;100.00;102940.78;5353435;26;20289;-59
2024/04/11 08:53:10;;;;;;;19.85;6.47;;;;;;;12.82;100.00;102948.69;5349199;26;20244;-59
2024/04/11 08:55:36;;;;;;;14.48;5.97;;;;;;;12.75;100.00;102943.44;5348023;26;20310;-58
2024/04/11 08:58:02;;;;;;;30.38;8.48;;;;;;;13.01;100.00;102957.28;5341759;26;20620;-59
2024/04/11 09:00:29;;;;;;;27.60;7.05;;;;;;;12.87;100.00;102958.47;5353452;26;20235;-58
2024/04/11 09:02:58;;;;;;;26.10;6.90;;;;;;;13.00;100.00;102960.91;5346556;26;20329;-58
2024/04/11 09:05:24;;;;;;;24.70;7.60;;;;;;;12.94;100.00;102966.41;5340221;26;20706;-59
2024/04/11 09:07:51;;;;;;;23.77;8.23;;;;;;;13.02;100.00;102960.88;5341894;26;20333;-58
2024/04/11 09:10:19;;;;;;;24.65;8.00;;;;;;;13.25;100.00;102971.19;5347029;26;20291;-59
2024/04/11 09:12:48;;;;;;;26.30;7.28;;;;;;;13.03;100.00;102968.91;5352173;26;20280;-59
2024/04/11 09:15:15;;;;;;;25.00;6.28;;;;;;;13.14;100.00;102966.03;5352122;26;20238;-58
2024/04/11 09:17:44;;;;;;;23.20;8.43;;;;;;;13.18;100.00;102975.81;5351964;26;20255;-60
2024/04/11 09:20:15;;;;;;;23.45;7.22;;;;;;;13.12;100.00;102978.59;5349731;26;20255;-58
2024/04/11 09:22:51;;;;;;;21.83;6.43;;;;;;;13.39;100.00;102984.41;5344999;26;20248;-60
2024/04/11 09:25:22;;;;;;;24.65;7.18;;;;;;;13.11;100.00;102990.28;5350979;26;20290;-58
2024/04/11 09:27:50;;;;;;;29.20;7.45;;;;;;;13.12;100.00;102997.44;5351562;26;20705;-58
2024/04/11 09:30:39;;;;;;;25.70;7.18;;;;;;;13.45;100.00;102997.72;5348819;26;20286;-57
2024/04/11 09:33:10;;;;;;;21.98;7.00;;;;;;;13.47;100.00;102990.50;5348918;26;20539;-59
2024/04/11 09:35:46;;;;;;;28.10;8.15;;;;;;;13.60;100.00;102996.53;5322624;26;20244;-58
2024/04/11 09:38:12;;;;;;;31.52;7.72;;;;;;;13.55;100.00;102996.63;5353747;26;20605;-58
2024/04/11 09:40:42;;;;;;;24.83;6.82;;;;;;;13.56;100.00;102989.44;5350571;26;20744;-59
2024/04/11 09:43:10;;;;;;;19.60;6.10;;;;;;;13.59;100.00;102996.56;5349323;26;20231;-59
2024/04/11 09:45:35;;;;;;;23.38;6.45;;;;;;;13.67;100.00;103006.25;5347249;26;20255;-59
2024/04/11 09:48:03;;;;;;;23.15;5.85;;;;;;;13.63;100.00;102976.72;5348525;26;20666;-59
2024/04/11 09:50:30;;;;;;;28.10;6.85;;;;;;;14.03;100.00;103002.78;5350745;26;20242;-59
2024/04/11 09:52:57;;;;;;;24.10;6.43;;;;;;;14.04;100.00;102977.59;5341950;26;20240;-59
2024/04/11 09:55:33;;;;;;;21.20;5.95;;;;;;;14.14;100.00;103003.41;5350996;26;20235;-59
2024/04/11 09:58:04;;;;;;;26.27;5.63;;;;;;;14.27;100.00;103009.41;5352547;26;20246;-58
2024/04/11 10:01:04;;;;;;;15.77;4.63;;;;;;;14.17;100.00;102989.88;5349941;26;20348;-58
2024/04/11 10:03:31;;;;;;;28.65;6.97;;;;;;;14.41;100.00;103022.53;5347351;26;20256;-58
2024/04/11 10:06:04;;;;;;;21.13;5.88;;;;;;;14.60;100.00;103021.22;5352430;26;20280;-58
2024/04/11 10:08:34;;;;;;;22.50;6.47;;;;;;;14.51;100.00;103031.31;5352639;26;20239;-58
2024/04/11 10:11:03;;;;;;;21.63;5.32;;;;;;;14.48;100.00;103026.88;5352174;26;20247;-60
2024/04/11 10:13:39;;;;;;;19.60;4.80;;;;;;;14.62;100.00;103021.16;5350825;26;20243;-59
2024/04/11 10:16:13;;;;;;;21.70;5.82;;;;;;;14.72;100.00;103024.53;5350702;26;20280;-59
2024/04/11 10:18:45;;;;;;;15.13;4.72;;;;;;;14.92;100.00;103035.69;5349802;26;20238;-59
2024/04/11 10:21:12;;;;;;;25.98;5.60;;;;;;;14.55;100.00;103049.22;5347482;26;20243;-58
2024/04/11 10:23:38;;;;;;;24.25;5.13;;;;;;;14.49;100.00;103042.16;5351775;26;20704;-57
2024/04/11 10:26:07;;;;;;;26.02;6.00;;;;;;;14.74;100.00;103041.56;5351334;26;20246;-59
2024/04/11 10:28:41;;;;;;;14.55;4.90;;;;;;;14.76;100.00;103050.50;5347635;26;20235;-58
2024/04/11 10:31:17;;;;;;;20.73;5.72;;;;;;;14.83;100.00;103051.25;5341315;26;20571;-58
2024/04/11 10:33:58;;;;;;;18.88;4.97;;;;;;;14.82;100.00;103055.75;5335151;26;20239;-58
2024/04/11 10:36:32;;;;;;;17.98;4.10;;;;;;;15.20;100.00;103071.88;5330811;26;20299;-58
2024/04/11 10:38:58;;;;;;;14.18;4.97;;;;;;;15.14;100.00;103078.31;5341095;26;20255;-59
2024/04/11 10:41:25;;;;;;;24.83;5.00;;;;;;;14.93;100.00;103068.97;5328931;26;20287;-59
2024/04/11 10:43:55;;;;;;;18.27;4.88;;;;;;;15.04;100.00;103072.28;5342695;26;20286;-57
2024/04/11 10:46:21;;;;;;;19.92;4.53;;;;;;;15.18;100.00;103081.84;5348143;26;20239;-57
2024/04/11 10:48:48;;;;;;;26.60;5.22;;;;;;;15.01;100.00;103079.56;5324130;26;20243;-57
2024/04/11 10:51:14;;;;;;;17.35;4.60;;;;;;;15.06;100.00;103075.81;5342953;26;20235;-57
2024/04/11 10:53:47;;;;;;;14.63;4.55;;;;;;;15.26;100.00;103077.13;5353199;26;20763;-59
2024/04/11 10:56:22;;;;;;;13.50;4.57;;;;;;;15.23;100.00;103088.88;5351937;26;20242;-59
2024/04/11 10:58:53;;;;;;;23.58;5.82;;;;;;;15.06;100.00;103094.72;5331299;26;20337;-58
2024/04/11 11:01:26;;;;;;;13.48;4.10;;;;;;;15.34;100.00;103089.50;5342668;26;20235;-58
2024/04/11 11:03:57;;;;;;;22.35;4.35;;;;;;;15.20;100.00;103079.97;5320438;26;20330;-58
2024/04/11 11:06:34;;;;;;;19.10;4.88;;;;;;;15.14;100.00;103086.41;5335893;26;20244;-58
2024/04/11 11:09:14;;;;;;;19.85;4.53;;;;;;;14.90;100.00;103087.94;5354902;26;20289;-59
2024/04/11 11:11:46;;;;;;;18.55;4.18;;;;;;;15.04;100.00;103082.19;5352174;26;20303;-57
2024/04/11 11:14:17;;;;;;;12.02;3.97;;;;;;;15.09;100.00;103064.94;5358862;26;20255;-57